NCAR-RAP Real-Time Weather Data

Output produced by METARs form (06 May 2021  16:24 UTC)
found at http://weather.rap.ucar.edu/surface/
 
KTYR 061553Z VRB04KT 10SM CLR 24/11 A3023 RMK AO2 SLP232 T02390111
KTYR 061453Z 02004KT 10SM CLR 20/12 A3024 RMK AO2 SLP235 T02000122 53016
KTYR 061353Z 00000KT 10SM CLR 19/11 A3023 RMK AO2 SLP231 T01890111
KTYR 061253Z 00000KT 10SM CLR 16/11 A3020 RMK AO2 SLP222 T01610111
KTYR 061153Z 00000KT 10SM CLR 14/10 A3019 RMK AO2 SLP220 T01390100 10156 20128 53009 $
KTYR 061053Z AUTO 00000KT 10SM CLR 15/12 A3017 RMK AO2 SLP210 T01500117 $
KTYR 060953Z AUTO 00000KT 10SM CLR 14/11 A3017 RMK AO2 SLP210 T01390106 $
KTYR 060853Z AUTO 02003KT 10SM CLR 14/11 A3017 RMK AO2 SLP210 T01390106 50008 $
KTYR 060753Z AUTO 34004KT 10SM CLR 13/11 A3017 RMK AO2 SLP213 T01330106 $
KTYR 060653Z AUTO 07003KT 10SM CLR 15/11 A3015 RMK AO2 SLP206 T01500106 $
KTYR 060553Z AUTO 03003KT 10SM CLR 16/11 A3014 RMK AO2 SLP203 T01610106 10244 20161 402560117 51013 $
KTYR 060453Z AUTO 05003KT 10SM CLR 17/11 A3014 RMK AO2 SLP201 T01670106 $
KTYR 060353Z AUTO 05003KT 10SM CLR 18/11 A3013 RMK AO2 SLP198 T01780106 $
KTYR 060253Z AUTO 06004KT 10SM CLR 19/11 A3010 RMK AO2 SLP189 T01890106 53012 $
KTYR 060153Z 04003KT 10SM CLR 21/11 A3009 RMK AO2 SLP183 T02060106